createdAt,value
2022-10-03T00:04:29.088Z,5
2022-10-03T00:14:34.525Z,6
2022-10-03T00:24:41.407Z,5
2022-10-03T00:34:47.365Z,7
2022-10-03T00:44:52.975Z,9
2022-10-03T00:54:59.337Z,7
2022-10-03T01:05:05.022Z,7
2022-10-03T01:15:10.932Z,10
2022-10-03T01:25:17.035Z,10
2022-10-03T01:35:23.053Z,8
2022-10-03T01:45:29.426Z,10
2022-10-03T01:55:35.317Z,12
2022-10-03T02:05:40.220Z,10
2022-10-03T02:15:45.440Z,10
2022-10-03T02:25:49.402Z,13
2022-10-03T02:35:54.968Z,12
2022-10-03T02:46:02.199Z,12
2022-10-03T02:56:08.200Z,9
2022-10-03T03:06:12.159Z,11
2022-10-03T03:16:19.275Z,10
2022-10-03T03:26:23.749Z,10
2022-10-03T03:36:30.604Z,11
2022-10-03T03:46:37.377Z,13
2022-10-03T03:56:43.217Z,10
2022-10-03T04:06:50.068Z,11
2022-10-03T04:16:57.013Z,11
2022-10-03T04:26:59.523Z,11
2022-10-03T04:37:05.185Z,13
2022-10-03T04:47:12.444Z,13
2022-10-03T04:57:19.882Z,16
2022-10-03T05:07:26.333Z,14
2022-10-03T05:17:33.452Z,17
2022-10-03T05:27:39.713Z,12
2022-10-03T05:37:44.198Z,13
2022-10-03T05:47:51.019Z,15
2022-10-03T05:57:57.403Z,15
2022-10-03T06:08:03.061Z,15
2022-10-03T06:18:13.848Z,17
2022-10-03T06:28:13.721Z,14
2022-10-03T06:38:20.252Z,16
2022-10-03T06:48:26.333Z,17
2022-10-03T06:58:32.470Z,17
2022-10-03T07:08:37.841Z,22
2022-10-03T07:18:43.212Z,14
2022-10-03T07:28:49.365Z,12
2022-10-03T07:38:55.916Z,16
2022-10-03T07:49:01.485Z,18
2022-10-03T07:59:06.492Z,20
2022-10-03T08:09:14.842Z,14
2022-10-03T08:19:19.269Z,14
2022-10-03T08:29:25.042Z,30
2022-10-03T08:39:30.443Z,39
2022-10-03T08:49:36.011Z,19
2022-10-03T08:59:40.884Z,36
2022-10-03T09:09:45.823Z,33
2022-10-03T09:19:51.643Z,35
2022-10-03T09:29:57.537Z,29
2022-10-03T09:40:03.375Z,31
2022-10-03T09:50:10.189Z,25
2022-10-03T10:00:14.785Z,23
2022-10-03T10:10:20.684Z,15
2022-10-03T10:20:28.166Z,11
2022-10-03T10:30:33.569Z,9
2022-10-03T10:40:39.147Z,8
2022-10-03T10:50:46.905Z,9
2022-10-03T11:00:51.548Z,8
2022-10-03T11:10:57.978Z,12
2022-10-03T11:21:05.040Z,20
2022-10-03T11:31:10.004Z,10
2022-10-03T11:41:17.781Z,7
2022-10-03T11:51:22.788Z,8
2022-10-03T12:01:29.851Z,10
2022-10-03T12:11:36.175Z,9
2022-10-03T12:21:42.220Z,8
2022-10-03T12:31:51.543Z,6
2022-10-03T12:41:54.579Z,5
2022-10-03T12:52:00.958Z,5
2022-10-03T13:02:09.507Z,6
2022-10-03T13:12:12.809Z,6
2022-10-03T13:22:44.308Z,10
2022-10-03T13:32:38.479Z,7
2022-10-03T13:42:45.071Z,7
2022-10-03T13:52:51.882Z,8
2022-10-03T14:02:58.798Z,12
2022-10-03T14:13:37.537Z,8
2022-10-03T14:23:30.890Z,6
2022-10-03T14:33:37.056Z,10
2022-10-03T14:43:42.628Z,9
2022-10-03T14:53:50.032Z,7
2022-10-03T15:03:56.307Z,10
2022-10-03T15:14:00.600Z,15
2022-10-03T15:24:05.892Z,10
2022-10-03T15:34:12.778Z,10
2022-10-03T15:44:19.456Z,7
2022-10-03T15:54:24.753Z,8
2022-10-03T16:04:31.550Z,8
2022-10-03T16:14:37.099Z,10
2022-10-03T16:24:42.338Z,9
2022-10-03T16:34:47.234Z,10
2022-10-03T16:44:53.216Z,11
2022-10-03T16:54:58.979Z,21
2022-10-03T17:05:04.638Z,39
2022-10-03T17:15:10.732Z,90
2022-10-03T17:25:18.748Z,25
2022-10-03T17:35:24.003Z,22
2022-10-03T17:45:35.298Z,33
2022-10-03T17:55:36.006Z,29
2022-10-03T18:05:42.333Z,21
2022-10-03T18:15:49.001Z,22
2022-10-03T18:26:20.401Z,19
2022-10-03T18:36:14.547Z,18
2022-10-03T18:46:19.987Z,12
2022-10-03T18:56:24.096Z,15
2022-10-03T19:06:31.090Z,12
2022-10-03T19:16:37.992Z,16
2022-10-03T19:26:43.879Z,16
2022-10-03T19:36:49.920Z,14
2022-10-03T19:46:57.821Z,15
2022-10-03T19:57:04.967Z,29
2022-10-03T20:07:09.134Z,38
2022-10-03T20:17:16.337Z,33
2022-10-03T20:27:24.077Z,18
2022-10-03T20:37:30.558Z,17
2022-10-03T20:47:36.621Z,15
2022-10-03T20:57:43.282Z,21
2022-10-03T21:07:50.119Z,15
2022-10-03T21:17:55.799Z,16
2022-10-03T21:28:02.265Z,18
2022-10-03T21:38:08.521Z,14
2022-10-03T21:48:13.158Z,12
2022-10-03T21:58:20.766Z,13
2022-10-03T22:08:26.422Z,11
2022-10-03T22:18:33.870Z,12
2022-10-03T22:28:41.543Z,12
2022-10-03T22:38:47.542Z,14
2022-10-03T22:48:56.214Z,20
2022-10-03T22:59:02.285Z,21
2022-10-03T23:09:08.066Z,25
2022-10-03T23:19:13.935Z,19
2022-10-03T23:29:19.938Z,14
2022-10-03T23:39:26.095Z,12
2022-10-03T23:49:31.388Z,9
2022-10-03T23:59:38.146Z,8
